createdAt,value
2019-02-21T00:00:24.152Z,1014.29
2019-02-21T00:01:20.192Z,1014.33
2019-02-21T00:02:20.203Z,1014.35
2019-02-21T00:03:20.202Z,1014.36
2019-02-21T00:04:20.210Z,1014.45
2019-02-21T00:05:20.211Z,1014.46
2019-02-21T00:06:20.215Z,1014.44
2019-02-21T00:07:20.222Z,1014.46
2019-02-21T00:08:20.228Z,1014.53
2019-02-21T00:09:20.230Z,1014.50
2019-02-21T00:10:20.236Z,1014.52
2019-02-21T00:11:20.241Z,1014.55
2019-02-21T00:12:20.247Z,1014.54
2019-02-21T00:13:20.251Z,1014.61
2019-02-21T00:14:20.255Z,1014.61
2019-02-21T00:15:20.263Z,1014.66
2019-02-21T00:16:20.267Z,1014.68
2019-02-21T00:17:20.343Z,1014.71
2019-02-21T00:18:20.281Z,1014.68
2019-02-21T00:19:20.284Z,1014.71
2019-02-21T00:20:20.290Z,1014.80
2019-02-21T00:21:20.290Z,1014.76
2019-02-21T00:22:20.296Z,1014.80
2019-02-21T00:23:20.302Z,1014.82
2019-02-21T00:24:20.305Z,1014.80
2019-02-21T00:25:20.314Z,1014.90
2019-02-21T00:26:20.319Z,1014.87
2019-02-21T00:27:20.320Z,1014.92
2019-02-21T00:28:20.329Z,1014.93
2019-02-21T00:29:20.330Z,1014.95
2019-02-21T00:30:20.336Z,1014.94
2019-02-21T00:31:20.341Z,1014.98
2019-02-21T00:32:20.347Z,1015.01
2019-02-21T00:33:20.352Z,1015.02
2019-02-21T00:34:20.357Z,1015.06
2019-02-21T00:35:20.363Z,1015.13
2019-02-21T00:36:20.367Z,1015.09
2019-02-21T00:37:20.369Z,1015.12
2019-02-21T00:38:20.374Z,1015.17
2019-02-21T00:39:20.379Z,1015.19
2019-02-21T00:40:20.387Z,1015.20
2019-02-21T00:41:20.389Z,1015.21
2019-02-21T00:42:20.407Z,1015.25
2019-02-21T00:43:20.400Z,1015.19
2019-02-21T00:44:20.405Z,1015.19
2019-02-21T00:45:20.410Z,1015.19
2019-02-21T00:46:20.520Z,1015.24
2019-02-21T00:47:20.420Z,1015.24
2019-02-21T00:48:20.425Z,1015.19
2019-02-21T00:49:20.467Z,1015.22
2019-02-21T00:50:20.436Z,1015.27
2019-02-21T00:51:20.442Z,1015.28
2019-02-21T00:52:20.447Z,1015.24
2019-02-21T00:53:20.449Z,1015.29
2019-02-21T00:54:20.455Z,1015.35
2019-02-21T00:55:20.458Z,1015.31
2019-02-21T00:56:20.466Z,1015.36
2019-02-21T00:57:20.467Z,1015.32
2019-02-21T00:58:20.472Z,1015.37
2019-02-21T00:59:20.485Z,1015.41
2019-02-21T01:00:20.484Z,1015.44
2019-02-21T01:01:21.009Z,1015.47
2019-02-21T01:02:20.493Z,1015.45
2019-02-21T01:03:20.498Z,1015.54
2019-02-21T01:04:20.504Z,1015.52
2019-02-21T01:05:20.507Z,1015.51
2019-02-21T01:06:20.516Z,1015.49
2019-02-21T01:07:20.518Z,1015.55
2019-02-21T01:08:20.523Z,1015.59
2019-02-21T01:09:20.533Z,1015.56
2019-02-21T01:10:20.533Z,1015.57
2019-02-21T01:11:20.539Z,1015.60
2019-02-21T01:12:20.541Z,1015.57
2019-02-21T01:13:20.551Z,1015.61
2019-02-21T01:14:20.557Z,1015.58
2019-02-21T01:15:20.559Z,1015.60
2019-02-21T01:16:20.563Z,1015.61
2019-02-21T01:17:20.574Z,1015.67
2019-02-21T01:18:20.610Z,1015.65
2019-02-21T01:19:20.576Z,1015.68
2019-02-21T01:20:20.581Z,1015.70
2019-02-21T01:21:20.586Z,1015.73
2019-02-21T01:22:20.591Z,1015.69
2019-02-21T01:23:20.599Z,1015.71
2019-02-21T01:24:20.600Z,1015.75
2019-02-21T01:25:20.606Z,1015.72
2019-02-21T01:26:20.611Z,1015.77
2019-02-21T01:27:20.649Z,1015.79
2019-02-21T01:28:20.621Z,1015.76
2019-02-21T01:29:20.625Z,1015.77
2019-02-21T01:30:20.629Z,1015.81
2019-02-21T01:31:20.634Z,1015.84
2019-02-21T01:32:20.641Z,1015.89
2019-02-21T01:33:20.643Z,1015.85
2019-02-21T01:34:20.652Z,1015.87
2019-02-21T01:35:20.654Z,1015.91
2019-02-21T01:36:20.660Z,1015.91
2019-02-21T01:37:20.664Z,1015.92
2019-02-21T01:38:20.668Z,1015.97
2019-02-21T01:39:20.675Z,1015.94
2019-02-21T01:40:20.681Z,1015.99
2019-02-21T01:41:20.683Z,1015.98
2019-02-21T01:42:20.689Z,1015.99
2019-02-21T01:43:20.695Z,1016.01
2019-02-21T01:44:20.706Z,1016.06
2019-02-21T01:45:20.705Z,1016.05
2019-02-21T01:46:20.707Z,1016.04
2019-02-21T01:47:20.714Z,1016.10
2019-02-21T01:48:20.718Z,1016.14
2019-02-21T01:49:20.729Z,1016.11
2019-02-21T01:50:20.727Z,1016.14
2019-02-21T01:51:20.733Z,1016.19
2019-02-21T01:52:20.737Z,1016.25
2019-02-21T01:53:20.741Z,1016.19
2019-02-21T01:54:20.821Z,1016.24
2019-02-21T01:55:20.753Z,1016.30
2019-02-21T01:56:20.759Z,1016.33
2019-02-21T01:57:20.761Z,1016.30
2019-02-21T01:58:21.024Z,1016.36
2019-02-21T01:59:20.773Z,1016.38
2019-02-21T02:00:21.078Z,1016.36
2019-02-21T02:01:20.783Z,1016.35
2019-02-21T02:02:20.874Z,1016.39
2019-02-21T02:03:20.791Z,1016.41
2019-02-21T02:04:20.797Z,1016.48
2019-02-21T02:05:20.801Z,1016.49
2019-02-21T02:06:20.807Z,1016.46
2019-02-21T02:07:20.809Z,1016.50
2019-02-21T02:08:20.815Z,1016.51
2019-02-21T02:09:20.819Z,1016.52
2019-02-21T02:10:20.824Z,1016.58
2019-02-21T02:11:20.830Z,1016.60
2019-02-21T02:12:20.835Z,1016.63
2019-02-21T02:13:24.538Z,1016.61
2019-02-21T02:14:20.844Z,1016.60
2019-02-21T02:15:20.849Z,1016.63
2019-02-21T02:16:20.855Z,1016.68
2019-02-21T02:17:20.859Z,1016.68
2019-02-21T02:18:20.863Z,1016.69
2019-02-21T02:19:20.869Z,1016.73
2019-02-21T02:20:20.873Z,1016.75
2019-02-21T02:21:20.968Z,1016.78
2019-02-21T02:22:20.885Z,1016.80
2019-02-21T02:23:20.903Z,1016.81
2019-02-21T02:24:20.893Z,1016.83
2019-02-21T02:25:20.898Z,1016.81
2019-02-21T02:26:20.903Z,1016.85
2019-02-21T02:27:20.908Z,1016.87
2019-02-21T02:28:20.912Z,1016.88
2019-02-21T02:29:20.920Z,1016.90
2019-02-21T02:30:20.925Z,1016.92
2019-02-21T02:31:23.351Z,1016.94
2019-02-21T02:32:20.931Z,1016.98
2019-02-21T02:33:20.945Z,1016.99
2019-02-21T02:34:20.983Z,1017.03
2019-02-21T02:35:20.946Z,1017.00
2019-02-21T02:36:20.961Z,1017.05
2019-02-21T02:37:20.972Z,1017.06
2019-02-21T02:38:20.961Z,1017.05
2019-02-21T02:39:20.968Z,1017.13
2019-02-21T02:40:20.979Z,1017.13
2019-02-21T02:41:20.994Z,1017.07
2019-02-21T02:42:20.981Z,1017.16
2019-02-21T02:43:20.985Z,1017.11
2019-02-21T02:44:20.991Z,1017.13
2019-02-21T02:45:21.000Z,1017.11
2019-02-21T02:46:20.999Z,1017.13
2019-02-21T02:47:21.005Z,1017.18
2019-02-21T02:48:21.008Z,1017.22
2019-02-21T02:49:21.012Z,1017.20
2019-02-21T02:50:21.024Z,1017.15
2019-02-21T02:51:21.035Z,1017.20
2019-02-21T02:52:21.030Z,1017.23
2019-02-21T02:53:21.032Z,1017.23
2019-02-21T02:54:21.037Z,1017.24
2019-02-21T02:55:21.044Z,1017.20
2019-02-21T02:56:21.047Z,1017.25
2019-02-21T02:57:21.054Z,1017.26
2019-02-21T02:58:21.060Z,1017.30
2019-02-21T02:59:21.063Z,1017.34
2019-02-21T03:00:21.067Z,1017.33
2019-02-21T03:01:21.072Z,1017.33
2019-02-21T03:02:21.077Z,1017.43
2019-02-21T03:03:21.082Z,1017.38
2019-02-21T03:04:21.116Z,1017.42
2019-02-21T03:05:21.091Z,1017.44
2019-02-21T03:06:21.096Z,1017.41
2019-02-21T03:07:21.102Z,1017.43
2019-02-21T03:08:21.134Z,1017.48
2019-02-21T03:09:21.110Z,1017.48
2019-02-21T03:10:21.117Z,1017.46
2019-02-21T03:11:21.120Z,1017.48
2019-02-21T03:12:21.129Z,1017.50
2019-02-21T03:13:21.132Z,1017.55
2019-02-21T03:14:21.133Z,1017.54
2019-02-21T03:15:21.141Z,1017.60
2019-02-21T03:16:21.167Z,1017.60
2019-02-21T03:17:21.148Z,1017.62
2019-02-21T03:18:21.157Z,1017.64
2019-02-21T03:19:21.159Z,1017.67
2019-02-21T03:20:21.165Z,1017.68
2019-02-21T03:21:21.169Z,1017.66
2019-02-21T03:22:21.178Z,1017.67
2019-02-21T03:23:21.179Z,1017.73
2019-02-21T03:24:21.185Z,1017.77
2019-02-21T03:25:21.194Z,1017.74
2019-02-21T03:26:21.195Z,1017.73
2019-02-21T03:27:21.206Z,1017.79
2019-02-21T03:28:21.206Z,1017.83
2019-02-21T03:29:21.207Z,1017.82
2019-02-21T03:30:21.216Z,1017.88
2019-02-21T03:31:21.229Z,1017.90
2019-02-21T03:32:21.224Z,1017.91
2019-02-21T03:33:21.260Z,1017.95
2019-02-21T03:34:21.235Z,1017.96
2019-02-21T03:35:21.237Z,1017.94
2019-02-21T03:36:21.281Z,1017.97
2019-02-21T03:37:21.247Z,1018.01
2019-02-21T03:38:21.252Z,1017.99
2019-02-21T03:39:21.257Z,1018.01
2019-02-21T03:40:21.262Z,1017.99
2019-02-21T03:41:21.267Z,1018.03
2019-02-21T03:42:21.269Z,1018.03
2019-02-21T03:43:21.284Z,1018.04
2019-02-21T03:44:21.299Z,1018.03
2019-02-21T03:45:21.283Z,1018.06
2019-02-21T03:46:21.294Z,1018.10
2019-02-21T03:47:21.295Z,1018.07
2019-02-21T03:48:21.300Z,1018.11
2019-02-21T03:49:21.303Z,1018.09
2019-02-21T03:50:21.309Z,1018.10
2019-02-21T03:51:21.314Z,1018.16
2019-02-21T03:52:21.323Z,1018.13
2019-02-21T03:53:21.330Z,1018.15
2019-02-21T03:54:21.330Z,1018.15
2019-02-21T03:55:21.335Z,1018.13
2019-02-21T03:56:21.341Z,1018.12
2019-02-21T03:57:21.341Z,1018.11
2019-02-21T03:58:21.347Z,1018.16
2019-02-21T03:59:21.351Z,1018.22
2019-02-21T04:00:21.358Z,1018.25
2019-02-21T04:01:21.362Z,1018.20
2019-02-21T04:02:21.388Z,1018.23
2019-02-21T04:03:21.372Z,1018.24
2019-02-21T04:04:21.376Z,1018.33
2019-02-21T04:05:21.380Z,1018.26
2019-02-21T04:06:21.386Z,1018.25
2019-02-21T04:07:21.931Z,1018.36
2019-02-21T04:08:21.396Z,1018.26
2019-02-21T04:09:21.411Z,1018.25
2019-02-21T04:10:21.409Z,1018.31
2019-02-21T04:11:21.417Z,1018.35
2019-02-21T04:12:21.422Z,1018.38
2019-02-21T04:13:21.422Z,1018.42
2019-02-21T04:14:21.449Z,1018.40
2019-02-21T04:15:21.431Z,1018.50
2019-02-21T04:16:21.435Z,1018.58
2019-02-21T04:17:21.440Z,1018.57
2019-02-21T04:18:21.443Z,1018.54
2019-02-21T04:19:21.449Z,1018.57
2019-02-21T04:20:21.453Z,1018.57
2019-02-21T04:21:21.531Z,1018.65
2019-02-21T04:22:21.465Z,1018.63
2019-02-21T04:23:21.469Z,1018.63
2019-02-21T04:24:21.474Z,1018.61
2019-02-21T04:25:21.477Z,1018.64
2019-02-21T04:26:21.645Z,1018.62
2019-02-21T04:27:21.487Z,1018.67
2019-02-21T04:28:21.491Z,1018.72
2019-02-21T04:29:21.496Z,1018.74
2019-02-21T04:30:21.503Z,1018.76
2019-02-21T04:31:21.506Z,1018.82
2019-02-21T04:32:21.512Z,1018.82
2019-02-21T04:33:21.518Z,1018.84
2019-02-21T04:34:21.521Z,1018.80
2019-02-21T04:35:21.525Z,1018.88
2019-02-21T04:36:23.473Z,1018.82
2019-02-21T04:37:21.534Z,1018.91
2019-02-21T04:38:21.546Z,1018.89
2019-02-21T04:39:21.564Z,1018.92
2019-02-21T04:40:21.550Z,1018.91
2019-02-21T04:41:21.556Z,1018.90
2019-02-21T04:42:21.559Z,1018.92
2019-02-21T04:43:21.565Z,1018.92
2019-02-21T04:44:21.626Z,1018.97
2019-02-21T04:45:21.579Z,1018.99
2019-02-21T04:46:21.578Z,1019.03
2019-02-21T04:47:21.583Z,1019.04
2019-02-21T04:48:21.588Z,1019.10
2019-02-21T04:49:21.595Z,1019.11
2019-02-21T04:50:21.598Z,1019.11
2019-02-21T04:51:21.604Z,1019.18
2019-02-21T04:52:21.608Z,1019.12
2019-02-21T04:53:21.612Z,1019.16
2019-02-21T04:54:21.618Z,1019.17
2019-02-21T04:55:21.621Z,1019.16
2019-02-21T04:56:21.887Z,1019.18
2019-02-21T04:57:21.636Z,1019.18
2019-02-21T04:58:21.635Z,1019.22
2019-02-21T04:59:21.640Z,1019.21
2019-02-21T05:00:21.647Z,1019.25
2019-02-21T05:01:21.651Z,1019.27
2019-02-21T05:02:28.977Z,1019.25
2019-02-21T05:03:21.678Z,1019.26
2019-02-21T05:04:21.666Z,1019.28
2019-02-21T05:05:21.670Z,1019.20
2019-02-21T05:06:21.676Z,1019.27
2019-02-21T05:07:21.687Z,1019.27
2019-02-21T05:08:21.684Z,1019.29
2019-02-21T05:09:21.694Z,1019.31
2019-02-21T05:10:21.693Z,1019.33
2019-02-21T05:11:21.697Z,1019.36
2019-02-21T05:12:21.705Z,1019.33
2019-02-21T05:13:21.706Z,1019.36
2019-02-21T05:14:21.712Z,1019.33
2019-02-21T05:15:21.721Z,1019.39
2019-02-21T05:16:21.721Z,1019.34
2019-02-21T05:17:21.728Z,1019.35
2019-02-21T05:18:21.731Z,1019.43
2019-02-21T05:19:21.737Z,1019.40
2019-02-21T05:20:21.744Z,1019.47
2019-02-21T05:21:21.749Z,1019.43
2019-02-21T05:22:21.754Z,1019.50
2019-02-21T05:23:21.756Z,1019.53
2019-02-21T05:24:21.760Z,1019.57
2019-02-21T05:25:21.765Z,1019.55
2019-02-21T05:26:21.775Z,1019.59
2019-02-21T05:27:21.776Z,1019.57
2019-02-21T05:28:21.785Z,1019.63
2019-02-21T05:29:21.784Z,1019.61
2019-02-21T05:30:21.794Z,1019.63
2019-02-21T05:31:21.797Z,1019.65
2019-02-21T05:32:21.801Z,1019.65
2019-02-21T05:33:21.803Z,1019.67
2019-02-21T05:34:21.813Z,1019.70
2019-02-21T05:35:21.813Z,1019.65
2019-02-21T05:36:21.835Z,1019.63
2019-02-21T05:37:21.824Z,1019.61
2019-02-21T05:38:21.848Z,1019.63
2019-02-21T05:39:21.835Z,1019.67
2019-02-21T05:40:21.839Z,1019.70
2019-02-21T05:41:21.844Z,1019.68
2019-02-21T05:42:21.849Z,1019.68
2019-02-21T05:43:21.853Z,1019.71
2019-02-21T05:44:21.859Z,1019.74
2019-02-21T05:45:21.861Z,1019.76
2019-02-21T05:46:21.865Z,1019.77
2019-02-21T05:47:21.872Z,1019.76
2019-02-21T05:48:21.876Z,1019.80
2019-02-21T05:49:21.885Z,1019.78
2019-02-21T05:50:21.887Z,1019.84
2019-02-21T05:51:21.890Z,1019.84
2019-02-21T05:52:21.897Z,1019.86
2019-02-21T05:53:21.900Z,1019.91
2019-02-21T05:54:21.910Z,1019.89
2019-02-21T05:55:21.955Z,1019.94
2019-02-21T05:56:21.917Z,1019.94
2019-02-21T05:57:22.193Z,1019.97
2019-02-21T05:58:21.928Z,1019.95
2019-02-21T05:59:21.929Z,1019.98
2019-02-21T06:00:21.947Z,1020.02
2019-02-21T06:01:21.958Z,1020.01
2019-02-21T06:02:21.946Z,1019.99
2019-02-21T06:03:21.946Z,1020.01
2019-02-21T06:04:21.972Z,1020.02
2019-02-21T06:05:21.957Z,1020.10
2019-02-21T06:06:21.961Z,1020.11
2019-02-21T06:07:21.967Z,1020.09
2019-02-21T06:08:21.973Z,1020.09
2019-02-21T06:09:21.976Z,1020.07
2019-02-21T06:10:21.983Z,1020.07
2019-02-21T06:11:21.985Z,1020.09
2019-02-21T06:12:33.211Z,1020.09
2019-02-21T06:13:21.994Z,1020.09
2019-02-21T06:14:22.000Z,1020.09
2019-02-21T06:15:22.029Z,1020.13
2019-02-21T06:16:22.015Z,1020.10
2019-02-21T06:17:22.015Z,1020.08
2019-02-21T06:18:22.020Z,1020.10
2019-02-21T06:19:22.030Z,1020.12
2019-02-21T06:20:22.039Z,1020.13
2019-02-21T06:21:22.032Z,1020.16
2019-02-21T06:22:22.037Z,1020.14
2019-02-21T06:23:22.044Z,1020.12
2019-02-21T06:24:22.047Z,1020.19
2019-02-21T06:25:22.055Z,1020.19
2019-02-21T06:26:22.058Z,1020.20
2019-02-21T06:27:22.062Z,1020.20
2019-02-21T06:28:22.068Z,1020.26
2019-02-21T06:29:22.693Z,1020.28
2019-02-21T06:30:22.082Z,1020.28
2019-02-21T06:31:22.082Z,1020.31
2019-02-21T06:32:22.085Z,1020.31
2019-02-21T06:33:22.091Z,1020.36
2019-02-21T06:34:22.095Z,1020.35
2019-02-21T06:35:22.105Z,1020.35
2019-02-21T06:36:22.105Z,1020.37
2019-02-21T06:37:22.111Z,1020.43
2019-02-21T06:38:22.120Z,1020.41
2019-02-21T06:39:22.121Z,1020.41
2019-02-21T06:40:22.124Z,1020.44
2019-02-21T06:41:22.129Z,1020.43
2019-02-21T06:42:22.133Z,1020.44
2019-02-21T06:43:22.138Z,1020.48
2019-02-21T06:44:22.150Z,1020.46
2019-02-21T06:45:22.148Z,1020.51
2019-02-21T06:46:22.155Z,1020.55
2019-02-21T06:47:22.229Z,1020.57
2019-02-21T06:48:22.165Z,1020.58
2019-02-21T06:49:32.008Z,1020.61
2019-02-21T06:50:26.798Z,1020.66
2019-02-21T06:51:22.175Z,1020.71
2019-02-21T06:52:22.183Z,1020.64
2019-02-21T06:53:22.186Z,1020.74
2019-02-21T06:54:22.618Z,1020.71
2019-02-21T06:55:22.199Z,1020.76
2019-02-21T06:56:22.200Z,1020.78
2019-02-21T06:57:22.205Z,1020.80
2019-02-21T06:58:22.210Z,1020.83
2019-02-21T06:59:23.751Z,1020.89
2019-02-21T07:00:22.218Z,1020.80
2019-02-21T07:01:28.970Z,1020.82
2019-02-21T07:02:22.229Z,1020.85
2019-02-21T07:03:22.232Z,1020.87
2019-02-21T07:04:22.237Z,1020.88
2019-02-21T07:05:22.242Z,1020.87
2019-02-21T07:06:31.492Z,1020.87
2019-02-21T07:07:22.254Z,1020.91
2019-02-21T07:08:25.038Z,1020.93
2019-02-21T07:09:22.262Z,1020.95
2019-02-21T07:10:22.265Z,1020.96
2019-02-21T07:11:22.272Z,1020.98
2019-02-21T07:12:22.278Z,1020.95
2019-02-21T07:13:26.770Z,1021.01
2019-02-21T07:14:22.285Z,1021.02
2019-02-21T07:15:22.291Z,1021.02
2019-02-21T07:16:22.297Z,1021.11
2019-02-21T07:17:22.348Z,1021.10
2019-02-21T07:18:22.306Z,1021.15
2019-02-21T07:19:22.309Z,1021.14
2019-02-21T07:20:22.321Z,1021.16
2019-02-21T07:21:22.319Z,1021.17
2019-02-21T07:22:22.640Z,1021.18
2019-02-21T07:23:22.328Z,1021.19
2019-02-21T07:24:22.334Z,1021.24
2019-02-21T07:25:22.340Z,1021.29
2019-02-21T07:26:22.350Z,1021.28
2019-02-21T07:27:22.353Z,1021.28
2019-02-21T07:28:22.353Z,1021.29
2019-02-21T07:29:22.356Z,1021.30
2019-02-21T07:30:23.246Z,1021.32
2019-02-21T07:31:28.935Z,1021.32
2019-02-21T07:32:22.372Z,1021.34
2019-02-21T07:33:28.326Z,1021.32
2019-02-21T07:34:22.381Z,1021.31
2019-02-21T07:35:22.386Z,1021.34
2019-02-21T07:36:22.393Z,1021.37
2019-02-21T07:37:22.394Z,1021.36
2019-02-21T07:38:22.401Z,1021.41
2019-02-21T07:39:22.404Z,1021.41
2019-02-21T07:40:22.412Z,1021.45
2019-02-21T07:41:22.417Z,1021.44
2019-02-21T07:42:22.419Z,1021.53
2019-02-21T07:43:24.862Z,1021.53
2019-02-21T07:44:22.428Z,1021.52
2019-02-21T07:45:22.433Z,1021.52
2019-02-21T07:46:22.442Z,1021.54
2019-02-21T07:47:22.444Z,1021.55
2019-02-21T07:48:22.449Z,1021.57
2019-02-21T07:49:22.458Z,1021.60
2019-02-21T07:50:23.278Z,1021.60
2019-02-21T07:51:22.462Z,1021.61
2019-02-21T07:52:22.470Z,1021.64
2019-02-21T07:53:22.472Z,1021.65
2019-02-21T07:54:22.481Z,1021.67
2019-02-21T07:55:22.485Z,1021.68
2019-02-21T07:56:22.489Z,1021.68
2019-02-21T07:57:22.491Z,1021.71
2019-02-21T07:58:22.495Z,1021.75
2019-02-21T07:59:22.502Z,1021.75
2019-02-21T08:00:22.506Z,1021.74
2019-02-21T08:01:22.512Z,1021.77
2019-02-21T08:02:22.514Z,1021.77
2019-02-21T08:03:30.370Z,1021.84
2019-02-21T08:04:22.639Z,1021.83
2019-02-21T08:05:23.703Z,1021.87
2019-02-21T08:06:22.536Z,1021.84
2019-02-21T08:07:22.547Z,1021.86
2019-02-21T08:08:22.546Z,1021.88
2019-02-21T08:09:22.550Z,1021.89
2019-02-21T08:10:33.156Z,1021.88
2019-02-21T08:11:22.558Z,1021.92
2019-02-21T08:12:23.250Z,1021.94
2019-02-21T08:13:22.568Z,1021.88
2019-02-21T08:14:22.580Z,1021.97
2019-02-21T08:15:22.583Z,1021.98
2019-02-21T08:16:22.585Z,1022.00
2019-02-21T08:17:22.589Z,1021.98
2019-02-21T08:18:22.596Z,1021.98
2019-02-21T08:19:22.600Z,1022.03
2019-02-21T08:20:33.182Z,1021.99
2019-02-21T08:21:22.637Z,1022.06
2019-02-21T08:22:22.611Z,1022.06
2019-02-21T08:23:22.618Z,1022.06
2019-02-21T08:24:22.622Z,1022.11
2019-02-21T08:25:22.626Z,1022.12
2019-02-21T08:26:22.643Z,1022.09
2019-02-21T08:27:22.640Z,1022.17
2019-02-21T08:28:22.642Z,1022.12
2019-02-21T08:29:22.647Z,1022.16
2019-02-21T08:30:22.651Z,1022.16
2019-02-21T08:31:22.656Z,1022.18
2019-02-21T08:32:22.666Z,1022.16
2019-02-21T08:33:22.666Z,1022.18
2019-02-21T08:34:22.671Z,1022.17
2019-02-21T08:35:22.676Z,1022.27
2019-02-21T08:36:22.693Z,1022.32
2019-02-21T08:37:22.685Z,1022.28
2019-02-21T08:38:22.689Z,1022.27
2019-02-21T08:39:22.695Z,1022.31
2019-02-21T08:40:24.986Z,1022.28
2019-02-21T08:41:25.555Z,1022.32
2019-02-21T08:42:22.819Z,1022.36
2019-02-21T08:43:22.713Z,1022.37
2019-02-21T08:44:22.719Z,1022.39
2019-02-21T08:45:22.724Z,1022.41
2019-02-21T08:46:22.734Z,1022.37
2019-02-21T08:47:22.735Z,1022.42
2019-02-21T08:48:22.739Z,1022.45
2019-02-21T08:49:22.744Z,1022.49
2019-02-21T08:50:22.785Z,1022.48
2019-02-21T08:51:22.753Z,1022.47
2019-02-21T08:52:22.758Z,1022.49
2019-02-21T08:53:22.770Z,1022.50
2019-02-21T08:54:22.778Z,1022.47
2019-02-21T08:55:22.771Z,1022.46
2019-02-21T08:56:22.778Z,1022.52
2019-02-21T08:57:22.780Z,1022.50
2019-02-21T08:58:22.831Z,1022.52
2019-02-21T08:59:22.792Z,1022.56
2019-02-21T09:00:22.797Z,1022.54
2019-02-21T09:01:22.801Z,1022.54
2019-02-21T09:02:22.810Z,1022.57
2019-02-21T09:03:22.811Z,1022.53
2019-02-21T09:04:27.401Z,1022.58
2019-02-21T09:05:22.820Z,1022.59
2019-02-21T09:06:24.722Z,1022.60
2019-02-21T09:07:22.830Z,1022.64
2019-02-21T09:08:33.057Z,1022.65
2019-02-21T09:09:22.838Z,1022.70
2019-02-21T09:10:22.849Z,1022.72
2019-02-21T09:11:22.850Z,1022.66
2019-02-21T09:12:22.855Z,1022.66
2019-02-21T09:13:23.902Z,1022.68
2019-02-21T09:14:22.865Z,1022.75
2019-02-21T09:15:22.869Z,1022.76
2019-02-21T09:16:22.875Z,1022.77
2019-02-21T09:17:22.878Z,1022.74
2019-02-21T09:18:22.885Z,1022.77
2019-02-21T09:19:22.889Z,1022.78
2019-02-21T09:20:22.895Z,1022.80
2019-02-21T09:21:22.899Z,1022.78
2019-02-21T09:22:22.904Z,1022.81
2019-02-21T09:23:22.910Z,1022.82
2019-02-21T09:24:37.419Z,1022.80
2019-02-21T09:25:22.924Z,1022.83
2019-02-21T09:26:22.924Z,1022.82
2019-02-21T09:27:22.929Z,1022.81
2019-02-21T09:28:22.935Z,1022.86
2019-02-21T09:29:22.940Z,1022.87
2019-02-21T09:30:22.943Z,1022.89
2019-02-21T09:31:22.950Z,1022.90
2019-02-21T09:32:22.954Z,1022.91
2019-02-21T09:33:22.958Z,1022.91
2019-02-21T09:34:22.964Z,1022.90
2019-02-21T09:35:22.967Z,1022.91
2019-02-21T09:36:22.981Z,1022.93
2019-02-21T09:37:22.979Z,1022.88
2019-02-21T09:38:22.982Z,1022.95
2019-02-21T09:39:22.988Z,1022.91
2019-02-21T09:40:22.993Z,1022.92
2019-02-21T09:41:22.998Z,1022.96
2019-02-21T09:42:23.002Z,1022.99
2019-02-21T09:43:23.009Z,1022.93
2019-02-21T09:44:23.014Z,1022.99
2019-02-21T09:45:23.018Z,1022.93
2019-02-21T09:46:23.032Z,1022.96
2019-02-21T09:47:23.092Z,1022.98
2019-02-21T09:48:23.037Z,1022.95
2019-02-21T09:49:23.038Z,1022.97
2019-02-21T09:50:23.044Z,1022.97
2019-02-21T09:51:23.049Z,1022.99
2019-02-21T09:52:23.053Z,1023.00
2019-02-21T09:53:23.060Z,1022.98
2019-02-21T09:54:23.064Z,1023.00
2019-02-21T09:55:23.105Z,1023.03
2019-02-21T09:56:30.500Z,1023.07
2019-02-21T09:57:23.079Z,1023.09
2019-02-21T09:58:23.085Z,1023.10
2019-02-21T09:59:23.092Z,1023.10
2019-02-21T10:00:23.095Z,1023.06
2019-02-21T10:01:23.100Z,1023.15
2019-02-21T10:02:23.254Z,1023.12
2019-02-21T10:03:23.109Z,1023.14
2019-02-21T10:04:31.902Z,1023.19
2019-02-21T10:05:23.122Z,1023.17
2019-02-21T10:06:23.134Z,1023.21
2019-02-21T10:07:23.131Z,1023.26
2019-02-21T10:08:23.142Z,1023.24
2019-02-21T10:09:23.144Z,1023.24
2019-02-21T10:10:23.313Z,1023.31
2019-02-21T10:11:23.152Z,1023.35
2019-02-21T10:12:23.159Z,1023.35
2019-02-21T10:13:23.161Z,1023.35
2019-02-21T10:14:23.168Z,1023.39
2019-02-21T10:15:23.174Z,1023.46
2019-02-21T10:16:23.178Z,1023.44
2019-02-21T10:17:23.187Z,1023.47
2019-02-21T10:18:23.192Z,1023.49
2019-02-21T10:19:23.195Z,1023.54
2019-02-21T10:20:23.200Z,1023.51
2019-02-21T10:21:23.206Z,1023.52
2019-02-21T10:22:23.210Z,1023.56
2019-02-21T10:23:24.352Z,1023.60
2019-02-21T10:24:23.223Z,1023.63
2019-02-21T10:25:23.478Z,1023.65
2019-02-21T10:26:23.232Z,1023.67
2019-02-21T10:27:23.237Z,1023.70
2019-02-21T10:28:23.245Z,1023.73
2019-02-21T10:29:23.248Z,1023.67
2019-02-21T10:30:23.256Z,1023.68
2019-02-21T10:31:23.264Z,1023.70
2019-02-21T10:32:23.265Z,1023.68
2019-02-21T10:33:25.280Z,1023.68
2019-02-21T10:34:23.276Z,1023.72
2019-02-21T10:35:23.282Z,1023.74
2019-02-21T10:36:23.287Z,1023.72
2019-02-21T10:37:23.293Z,1023.72
2019-02-21T10:38:23.299Z,1023.77
2019-02-21T10:39:23.306Z,1023.79
2019-02-21T10:40:23.312Z,1023.78
2019-02-21T10:41:23.316Z,1023.83
2019-02-21T10:42:23.322Z,1023.83
2019-02-21T10:43:23.327Z,1023.86
2019-02-21T10:44:23.334Z,1023.88
2019-02-21T10:45:23.339Z,1023.89
2019-02-21T10:46:23.345Z,1023.91
2019-02-21T10:47:23.350Z,1023.93
2019-02-21T10:48:23.357Z,1023.99
2019-02-21T10:49:23.361Z,1023.97
2019-02-21T10:50:23.368Z,1023.98
2019-02-21T10:51:23.397Z,1023.97
2019-02-21T10:52:23.381Z,1024.01
2019-02-21T10:53:23.385Z,1023.95
2019-02-21T10:54:23.394Z,1023.95
2019-02-21T10:55:23.396Z,1023.91
2019-02-21T10:56:23.404Z,1023.91
2019-02-21T10:57:23.411Z,1023.96
2019-02-21T10:58:23.415Z,1023.98
2019-02-21T10:59:23.423Z,1024.04
2019-02-21T11:00:23.428Z,1023.98
2019-02-21T11:01:23.432Z,1024.06
2019-02-21T11:02:23.439Z,1024.09
2019-02-21T11:03:23.446Z,1024.11
2019-02-21T11:04:23.453Z,1024.12
2019-02-21T11:05:23.458Z,1024.19
2019-02-21T11:06:23.466Z,1024.20
2019-02-21T11:07:23.470Z,1024.25
2019-02-21T11:08:23.480Z,1024.25
2019-02-21T11:09:23.483Z,1024.26
2019-02-21T11:10:23.487Z,1024.31
2019-02-21T11:11:23.495Z,1024.32
2019-02-21T11:12:23.501Z,1024.25
2019-02-21T11:13:23.507Z,1024.30
2019-02-21T11:14:23.512Z,1024.30
2019-02-21T11:15:23.518Z,1024.37
2019-02-21T11:16:23.524Z,1024.45
2019-02-21T11:17:25.766Z,1024.43
2019-02-21T11:18:23.536Z,1024.58
2019-02-21T11:19:23.546Z,1024.66
2019-02-21T11:20:23.550Z,1024.72
2019-02-21T11:21:23.555Z,1024.76
2019-02-21T11:22:23.567Z,1024.73
2019-02-21T11:23:23.568Z,1024.75
2019-02-21T11:24:23.578Z,1024.83
2019-02-21T11:25:23.581Z,1024.87
2019-02-21T11:26:23.590Z,1024.86
2019-02-21T11:27:23.599Z,1024.79
2019-02-21T11:28:23.604Z,1024.55
2019-02-21T11:29:23.607Z,1024.48
2019-02-21T11:30:23.613Z,1024.48
2019-02-21T11:31:23.620Z,1024.51
2019-02-21T11:32:23.627Z,1024.46
2019-02-21T11:33:23.633Z,1024.53
2019-02-21T11:34:23.643Z,1024.50
2019-02-21T11:35:23.651Z,1024.60
2019-02-21T11:36:23.657Z,1024.66
2019-02-21T11:37:23.663Z,1024.73
2019-02-21T11:38:23.670Z,1024.68
2019-02-21T11:39:23.678Z,1024.68
2019-02-21T11:40:23.686Z,1024.64
2019-02-21T11:41:23.697Z,1024.61
2019-02-21T11:42:23.700Z,1024.60
2019-02-21T11:43:23.711Z,1024.55
2019-02-21T11:44:23.718Z,1024.52
2019-02-21T11:45:23.730Z,1024.48
2019-02-21T11:46:23.738Z,1024.52
2019-02-21T11:47:23.745Z,1024.48
2019-02-21T11:48:23.758Z,1024.59
2019-02-21T11:49:23.764Z,1024.57
2019-02-21T11:50:23.775Z,1024.52
2019-02-21T11:51:23.782Z,1024.53
2019-02-21T11:52:23.796Z,1024.50
2019-02-21T11:53:23.800Z,1024.44
2019-02-21T11:54:27.006Z,1024.48
2019-02-21T11:55:23.820Z,1024.47
2019-02-21T11:56:23.830Z,1024.43
2019-02-21T11:57:23.837Z,1024.44
2019-02-21T11:58:23.848Z,1024.47
2019-02-21T11:59:23.858Z,1024.49
2019-02-21T12:00:23.868Z,1024.51
2019-02-21T12:01:23.877Z,1024.51
2019-02-21T12:02:23.953Z,1024.49
2019-02-21T12:03:23.904Z,1024.47
2019-02-21T12:04:24.516Z,1024.50
2019-02-21T12:05:31.911Z,1024.45